createdAt,value
2018-04-12T00:00:27.002Z,41.20
2018-04-12T00:01:26.935Z,49.00
2018-04-12T00:02:26.874Z,42.30
2018-04-12T00:03:26.805Z,44.10
2018-04-12T00:04:26.746Z,41.30
2018-04-12T00:05:26.685Z,45.70
2018-04-12T00:06:26.620Z,41.30
2018-04-12T00:07:26.559Z,39.60
2018-04-12T00:08:26.505Z,40.40
2018-04-12T00:09:26.432Z,42.50
2018-04-12T00:10:26.364Z,47.10
2018-04-12T00:11:26.301Z,40.20
2018-04-12T00:12:26.239Z,46.70
2018-04-12T00:13:26.174Z,41.30
2018-04-12T00:14:26.114Z,39.80
2018-04-12T00:15:26.051Z,40.30
2018-04-12T00:16:25.992Z,40.20
2018-04-12T00:17:25.923Z,36.60
2018-04-12T00:18:25.860Z,42.00
2018-04-12T00:19:25.807Z,43.50
2018-04-12T00:20:25.744Z,41.20
2018-04-12T00:21:25.672Z,38.30
2018-04-12T00:22:25.611Z,46.20
2018-04-12T00:23:25.544Z,41.30
2018-04-12T00:24:25.487Z,40.30
2018-04-12T00:25:25.415Z,40.90
2018-04-12T00:26:25.357Z,38.40
2018-04-12T00:27:25.294Z,44.10
2018-04-12T00:28:25.240Z,39.60
2018-04-12T00:29:25.167Z,43.40
2018-04-12T00:30:25.102Z,42.80
2018-04-12T00:31:25.040Z,40.90
2018-04-12T00:32:24.977Z,41.20
2018-04-12T00:33:24.914Z,45.50
2018-04-12T00:34:24.849Z,41.70
2018-04-12T00:35:24.791Z,42.20
2018-04-12T00:36:24.728Z,37.70
2018-04-12T00:37:24.664Z,39.90
2018-04-12T00:38:24.600Z,42.10
2018-04-12T00:39:24.538Z,41.80
2018-04-12T00:40:24.478Z,45.60
2018-04-12T00:41:24.408Z,42.90
2018-04-12T00:42:24.343Z,45.20
2018-04-12T00:43:24.281Z,43.80
2018-04-12T00:44:24.220Z,45.60
2018-04-12T00:45:24.155Z,42.80
2018-04-12T00:46:24.092Z,39.60
2018-04-12T00:47:24.031Z,41.00
2018-04-12T00:48:23.969Z,41.50
2018-04-12T00:49:23.921Z,40.40
2018-04-12T00:50:23.841Z,41.30
2018-04-12T00:51:23.782Z,42.00
2018-04-12T00:52:23.716Z,42.80
2018-04-12T00:53:23.653Z,44.90
2018-04-12T00:54:23.585Z,40.10
2018-04-12T00:55:23.521Z,45.50
2018-04-12T00:56:23.465Z,43.50
2018-04-12T00:57:23.396Z,40.90
2018-04-12T00:58:23.336Z,41.30
2018-04-12T00:59:23.268Z,40.10
2018-04-12T01:00:23.208Z,44.70
2018-04-12T01:01:23.143Z,44.20
2018-04-12T01:02:23.080Z,41.40
2018-04-12T01:03:23.018Z,47.00
2018-04-12T01:04:22.960Z,43.60
2018-04-12T01:05:22.890Z,42.50
2018-04-12T01:06:22.828Z,43.50
2018-04-12T01:07:22.769Z,44.50
2018-04-12T01:08:22.703Z,43.60
2018-04-12T01:09:22.637Z,43.20
2018-04-12T01:10:22.575Z,45.80
2018-04-12T01:11:22.512Z,45.10
2018-04-12T01:12:22.456Z,43.00
2018-04-12T01:13:22.386Z,46.30
2018-04-12T01:14:22.322Z,45.10
2018-04-12T01:15:22.258Z,40.50
2018-04-12T01:16:22.194Z,43.10
2018-04-12T01:17:22.129Z,44.30
2018-04-12T01:18:22.069Z,44.30
2018-04-12T01:19:22.002Z,44.80
2018-04-12T01:20:21.942Z,42.50
2018-04-12T01:21:21.880Z,42.40
2018-04-12T01:22:21.822Z,46.40
2018-04-12T01:23:21.758Z,43.20
2018-04-12T01:24:21.694Z,47.00
2018-04-12T01:25:21.630Z,44.60
2018-04-12T01:26:21.558Z,43.80
2018-04-12T01:27:21.496Z,44.20
2018-04-12T01:28:21.440Z,45.10
2018-04-12T01:29:21.368Z,45.90
2018-04-12T01:30:21.312Z,47.40
2018-04-12T01:31:21.246Z,43.50
2018-04-12T01:32:21.176Z,46.40
2018-04-12T01:33:21.116Z,44.90
2018-04-12T01:34:21.055Z,41.80
2018-04-12T01:35:20.990Z,45.50
2018-04-12T01:36:20.930Z,41.40
2018-04-12T01:37:20.866Z,44.60
2018-04-12T01:38:20.802Z,43.50
2018-04-12T01:39:20.752Z,45.90
2018-04-12T01:40:20.684Z,48.20
2018-04-12T01:41:20.616Z,45.30
2018-04-12T01:42:20.544Z,42.70
2018-04-12T01:43:29.147Z,45.60
2018-04-12T01:45:14.780Z,42.90
2018-04-12T01:46:22.313Z,46.20
2018-04-12T01:48:09.585Z,42.30
2018-04-12T01:49:08.897Z,43.80
2018-04-12T01:51:02.233Z,47.10
2018-04-12T01:52:02.100Z,47.50
2018-04-12T01:53:56.394Z,47.10
2018-04-12T01:54:56.294Z,53.70
2018-04-12T01:56:49.604Z,45.70
2018-04-12T01:57:49.506Z,45.40
2018-04-12T01:59:42.833Z,45.10
2018-04-12T02:00:42.716Z,43.20
2018-04-12T02:01:42.649Z,46.40
2018-04-12T02:02:42.590Z,47.80
2018-04-12T02:03:42.525Z,49.30
2018-04-12T02:04:42.459Z,44.10
2018-04-12T02:05:42.401Z,45.50
2018-04-12T02:06:42.344Z,44.50
2018-04-12T02:07:42.277Z,47.60
2018-04-12T02:08:42.217Z,49.20
2018-04-12T02:09:42.137Z,49.40
2018-04-12T02:10:42.076Z,46.80
2018-04-12T02:11:42.035Z,43.80
2018-04-12T02:12:41.953Z,48.50
2018-04-12T02:13:41.889Z,41.30
2018-04-12T02:14:41.821Z,46.10
2018-04-12T02:15:41.762Z,48.20
2018-04-12T02:16:41.698Z,54.20
2018-04-12T02:17:41.642Z,44.00
2018-04-12T02:18:41.570Z,58.80
2018-04-12T02:19:41.511Z,46.00
2018-04-12T02:20:41.445Z,45.10
2018-04-12T02:21:41.395Z,48.00
2018-04-12T02:22:41.313Z,46.60
2018-04-12T02:23:41.250Z,45.70
2018-04-12T02:24:41.218Z,41.10
2018-04-12T02:25:41.124Z,48.10
2018-04-12T02:26:41.061Z,46.90
2018-04-12T02:27:40.998Z,43.60
2018-04-12T02:28:40.937Z,47.30
2018-04-12T02:29:40.869Z,44.80
2018-04-12T02:30:40.849Z,46.60
2018-04-12T02:31:40.742Z,49.70
2018-04-12T02:32:40.682Z,51.00
2018-04-12T02:33:40.617Z,46.00
2018-04-12T02:34:40.553Z,48.10
2018-04-12T02:35:40.483Z,43.30
2018-04-12T02:36:40.426Z,44.60
2018-04-12T02:37:40.365Z,47.30
2018-04-12T02:38:40.294Z,53.80
2018-04-12T02:39:40.241Z,44.30
2018-04-12T02:40:40.165Z,47.80
2018-04-12T02:41:40.107Z,42.60
2018-04-12T02:42:40.040Z,43.50
2018-04-12T02:43:39.978Z,47.70
2018-04-12T02:44:39.917Z,44.10
2018-04-12T02:45:39.857Z,45.80
2018-04-12T02:46:39.803Z,45.30
2018-04-12T02:47:39.723Z,46.30
2018-04-12T02:48:39.658Z,46.30
2018-04-12T02:49:39.596Z,46.80
2018-04-12T02:50:39.553Z,47.00
2018-04-12T02:51:39.477Z,46.20
2018-04-12T02:52:39.403Z,47.10
2018-04-12T02:53:39.342Z,45.90
2018-04-12T02:54:39.274Z,43.70
2018-04-12T02:55:39.214Z,49.40
2018-04-12T02:56:39.153Z,48.30
2018-04-12T02:57:39.093Z,45.90
2018-04-12T02:58:39.023Z,43.30
2018-04-12T02:59:38.976Z,47.50
2018-04-12T03:00:38.891Z,48.40
2018-04-12T03:01:38.832Z,46.80
2018-04-12T03:02:38.770Z,48.70
2018-04-12T03:03:38.709Z,50.00
2018-04-12T03:04:38.635Z,45.80
2018-04-12T03:05:38.574Z,46.50
2018-04-12T03:06:38.512Z,49.50
2018-04-12T03:07:38.445Z,50.00
2018-04-12T03:08:38.388Z,49.70
2018-04-12T03:09:38.320Z,47.40
2018-04-12T03:10:38.260Z,47.50
2018-04-12T03:11:38.202Z,44.60
2018-04-12T03:12:38.133Z,47.60
2018-04-12T03:13:38.063Z,45.40
2018-04-12T03:14:37.994Z,45.10
2018-04-12T03:15:37.933Z,48.80
2018-04-12T03:16:37.886Z,50.30
2018-04-12T03:17:37.807Z,46.60
2018-04-12T03:18:37.751Z,48.30
2018-04-12T03:19:37.677Z,47.90
2018-04-12T03:20:37.614Z,47.30
2018-04-12T03:21:37.556Z,49.20
2018-04-12T03:22:37.490Z,47.70
2018-04-12T03:23:37.434Z,44.30
2018-04-12T03:24:37.357Z,49.80
2018-04-12T03:25:37.294Z,47.00
2018-04-12T03:26:37.243Z,45.50
2018-04-12T03:27:37.167Z,48.30
2018-04-12T03:28:37.106Z,52.40
2018-04-12T03:29:37.038Z,47.30
2018-04-12T03:30:36.980Z,52.30
2018-04-12T03:31:36.918Z,50.40
2018-04-12T03:32:36.842Z,45.90
2018-04-12T03:33:36.781Z,43.90
2018-04-12T03:34:36.727Z,45.30
2018-04-12T03:35:36.651Z,44.20
2018-04-12T03:36:36.600Z,44.80
2018-04-12T03:37:36.523Z,48.30
2018-04-12T03:38:36.460Z,47.10
2018-04-12T03:39:36.421Z,49.50
2018-04-12T03:40:36.334Z,46.70
2018-04-12T03:41:36.272Z,43.30
2018-04-12T03:42:36.206Z,45.00
2018-04-12T03:43:36.147Z,44.80
2018-04-12T03:44:36.076Z,48.90
2018-04-12T03:45:36.013Z,46.60
2018-04-12T03:46:35.948Z,48.10
2018-04-12T03:47:35.901Z,44.40
2018-04-12T03:48:35.887Z,45.30
2018-04-12T03:49:35.785Z,49.70
2018-04-12T03:50:35.727Z,48.10
2018-04-12T03:51:35.629Z,52.90
2018-04-12T03:52:35.567Z,45.50
2018-04-12T03:53:35.504Z,46.50
2018-04-12T03:54:35.453Z,46.40
2018-04-12T03:55:35.374Z,49.10
2018-04-12T03:56:35.309Z,46.60
2018-04-12T03:57:35.247Z,47.70
2018-04-12T03:58:35.179Z,51.50
2018-04-12T03:59:35.115Z,46.10
2018-04-12T04:00:35.054Z,48.90
2018-04-12T04:01:34.989Z,50.20
2018-04-12T04:02:34.934Z,46.30
2018-04-12T04:03:34.859Z,52.40
2018-04-12T04:04:34.797Z,49.40
2018-04-12T04:05:34.730Z,50.50
2018-04-12T04:06:34.666Z,46.00
2018-04-12T04:07:34.604Z,48.30
2018-04-12T04:08:34.539Z,46.40
2018-04-12T04:09:34.475Z,51.20
2018-04-12T04:10:34.405Z,53.60
2018-04-12T04:11:34.349Z,48.40
2018-04-12T04:12:34.289Z,48.40
2018-04-12T04:13:34.216Z,51.60
2018-04-12T04:14:34.181Z,45.40
2018-04-12T04:15:34.091Z,50.70
2018-04-12T04:16:34.022Z,50.10
2018-04-12T04:17:33.961Z,51.60
2018-04-12T04:18:33.900Z,48.10
2018-04-12T04:19:33.831Z,51.40
2018-04-12T04:20:33.772Z,49.40
2018-04-12T04:21:33.715Z,47.60
2018-04-12T04:22:33.638Z,50.80
2018-04-12T04:23:33.573Z,46.10
2018-04-12T04:24:33.514Z,43.80
2018-04-12T04:25:33.454Z,51.10
2018-04-12T04:26:33.385Z,46.00
2018-04-12T04:27:33.322Z,48.70
2018-04-12T04:28:33.254Z,51.40
2018-04-12T04:29:33.195Z,46.30
2018-04-12T04:30:33.128Z,47.10
2018-04-12T04:31:33.060Z,46.90
2018-04-12T04:32:33.008Z,45.20
2018-04-12T04:33:32.945Z,47.70
2018-04-12T04:34:32.871Z,44.10
2018-04-12T04:35:32.816Z,52.30
2018-04-12T04:36:32.739Z,45.60
2018-04-12T04:37:32.677Z,50.50
2018-04-12T04:38:32.618Z,48.00
2018-04-12T04:39:32.551Z,45.70
2018-04-12T04:40:32.488Z,50.90
2018-04-12T04:41:32.422Z,49.30
2018-04-12T04:42:32.362Z,48.80
2018-04-12T04:43:32.298Z,45.90
2018-04-12T04:44:32.231Z,42.70
2018-04-12T04:45:32.167Z,41.70
2018-04-12T04:46:32.103Z,48.40
2018-04-12T04:47:32.034Z,44.50
2018-04-12T04:48:31.970Z,43.80
2018-04-12T04:49:31.908Z,44.30
2018-04-12T04:50:31.840Z,48.40
2018-04-12T04:51:31.778Z,48.10
2018-04-12T04:52:31.720Z,45.30
2018-04-12T04:53:31.653Z,45.30
2018-04-12T04:54:31.594Z,46.00
2018-04-12T04:55:31.518Z,47.70
2018-04-12T04:56:31.457Z,47.60
2018-04-12T04:57:31.396Z,56.40
2018-04-12T04:58:31.353Z,56.30
2018-04-12T04:59:31.265Z,59.60
2018-04-12T05:00:31.202Z,50.70
2018-04-12T05:01:31.162Z,41.30
2018-04-12T05:02:31.081Z,42.10
2018-04-12T05:03:31.012Z,48.70
2018-04-12T05:04:30.948Z,44.20
2018-04-12T05:05:30.882Z,45.40
2018-04-12T05:06:30.827Z,45.40
2018-04-12T05:07:30.774Z,48.50
2018-04-12T05:08:30.707Z,52.30
2018-04-12T05:09:30.620Z,45.40
2018-04-12T05:10:30.560Z,47.60
2018-04-12T05:11:30.507Z,41.80
2018-04-12T05:12:30.433Z,43.50
2018-04-12T05:13:30.367Z,43.20
2018-04-12T05:14:30.302Z,43.60
2018-04-12T05:15:30.306Z,44.00
2018-04-12T05:16:30.181Z,42.20
2018-04-12T05:17:30.116Z,44.00
2018-04-12T05:18:30.051Z,46.00
2018-04-12T05:19:29.983Z,40.80
2018-04-12T05:20:29.921Z,44.60
2018-04-12T05:21:29.863Z,47.80
2018-04-12T05:22:29.788Z,44.60
2018-04-12T05:23:29.726Z,42.30
2018-04-12T05:24:29.661Z,44.10
2018-04-12T05:25:29.601Z,45.50
2018-04-12T05:26:29.540Z,42.70
2018-04-12T05:27:29.467Z,41.50
2018-04-12T05:28:29.406Z,44.50
2018-04-12T05:29:29.350Z,44.60
2018-04-12T05:30:29.285Z,46.40
2018-04-12T05:31:29.218Z,46.20
2018-04-12T05:32:29.148Z,41.60
2018-04-12T05:33:29.086Z,42.80
2018-04-12T05:34:29.033Z,41.80
2018-04-12T05:35:28.958Z,43.00
2018-04-12T05:36:28.896Z,39.70
2018-04-12T05:37:28.831Z,42.20
2018-04-12T05:38:28.770Z,42.00
2018-04-12T05:39:28.705Z,42.10
2018-04-12T05:40:28.641Z,46.10
2018-04-12T05:41:28.571Z,39.60
2018-04-12T05:42:28.519Z,44.70
2018-04-12T05:43:28.449Z,42.20
2018-04-12T05:44:28.386Z,41.80
2018-04-12T05:45:28.315Z,38.70
2018-04-12T05:46:28.277Z,41.80
2018-04-12T05:47:28.193Z,43.60
2018-04-12T05:48:28.126Z,43.00
2018-04-12T05:49:28.068Z,41.00
2018-04-12T05:50:28.002Z,41.80
2018-04-12T05:51:27.937Z,38.20
2018-04-12T05:52:27.878Z,43.60
2018-04-12T05:53:27.824Z,38.90
2018-04-12T05:54:27.751Z,40.20
2018-04-12T05:55:27.684Z,39.50
2018-04-12T05:56:27.685Z,39.30
2018-04-12T05:57:27.576Z,42.80
2018-04-12T05:58:27.492Z,43.40
2018-04-12T05:59:27.428Z,39.50
2018-04-12T06:00:27.363Z,39.10
2018-04-12T06:01:27.301Z,38.40
2018-04-12T06:02:27.244Z,39.10
2018-04-12T06:03:27.174Z,41.60
2018-04-12T06:04:27.106Z,40.20
2018-04-12T06:05:27.076Z,39.80
2018-04-12T06:06:26.978Z,36.80
2018-04-12T06:07:26.968Z,35.00
2018-04-12T06:08:26.854Z,42.90
2018-04-12T06:09:26.799Z,36.60
2018-04-12T06:10:26.730Z,36.70
2018-04-12T06:11:26.663Z,37.20
2018-04-12T06:12:26.599Z,40.10
2018-04-12T06:13:26.539Z,45.40
2018-04-12T06:14:26.472Z,36.50
2018-04-12T06:15:26.412Z,38.70
2018-04-12T06:16:26.346Z,37.30
2018-04-12T06:17:26.286Z,36.90
2018-04-12T06:18:26.220Z,34.80
2018-04-12T06:19:26.167Z,35.90
2018-04-12T06:20:26.122Z,35.50
2018-04-12T06:21:26.074Z,38.20
2018-04-12T06:22:25.971Z,37.80
2018-04-12T06:23:25.912Z,34.00
2018-04-12T06:24:25.842Z,37.80
2018-04-12T06:25:25.778Z,32.80
2018-04-12T06:26:25.717Z,34.40
2018-04-12T06:27:25.651Z,37.30
2018-04-12T06:28:25.597Z,34.80
2018-04-12T06:29:25.531Z,34.30
2018-04-12T06:30:25.464Z,33.20
2018-04-12T06:31:25.398Z,36.60
2018-04-12T06:32:25.338Z,34.70
2018-04-12T06:33:25.275Z,33.00
2018-04-12T06:34:25.210Z,33.40
2018-04-12T06:35:25.147Z,35.20
2018-04-12T06:36:25.083Z,32.50
2018-04-12T06:37:25.022Z,35.50
2018-04-12T06:38:24.958Z,35.60
2018-04-12T06:39:24.894Z,32.70
2018-04-12T06:40:24.841Z,34.30
2018-04-12T06:41:24.776Z,34.80
2018-04-12T06:42:24.734Z,35.60
2018-04-12T06:43:24.646Z,31.50
2018-04-12T06:44:24.579Z,37.70
2018-04-12T06:45:24.537Z,34.50
2018-04-12T06:46:24.453Z,33.50
2018-04-12T06:47:24.398Z,35.20
2018-04-12T06:48:24.341Z,32.10
2018-04-12T06:49:24.265Z,33.30
2018-04-12T06:50:24.207Z,35.40
2018-04-12T06:51:24.137Z,31.50
2018-04-12T06:52:24.079Z,29.10
2018-04-12T06:53:24.019Z,29.50
2018-04-12T06:54:23.960Z,30.90
2018-04-12T06:55:23.892Z,28.70
2018-04-12T06:56:23.828Z,34.60
2018-04-12T06:57:23.771Z,30.00
2018-04-12T06:58:23.702Z,29.90
2018-04-12T06:59:23.640Z,31.80
2018-04-12T07:00:23.580Z,31.60
2018-04-12T07:01:23.518Z,35.10
2018-04-12T07:02:23.461Z,34.80
2018-04-12T07:03:23.393Z,33.50
2018-04-12T07:04:23.329Z,31.50
2018-04-12T07:05:23.275Z,28.00
2018-04-12T07:06:23.217Z,29.50
2018-04-12T07:07:23.150Z,33.70
2018-04-12T07:08:23.075Z,32.50
2018-04-12T07:09:23.016Z,29.70
2018-04-12T07:10:22.966Z,36.90
2018-04-12T07:11:22.888Z,33.90
2018-04-12T07:12:22.831Z,29.90
2018-04-12T07:13:22.774Z,30.10
2018-04-12T07:14:22.728Z,29.30
2018-04-12T07:15:22.686Z,30.60
2018-04-12T07:16:22.579Z,30.10
2018-04-12T07:17:22.517Z,31.60
2018-04-12T07:18:22.457Z,29.80
2018-04-12T07:19:22.421Z,28.40
2018-04-12T07:20:22.329Z,32.90
2018-04-12T07:21:22.283Z,31.30
2018-04-12T07:22:22.203Z,28.60
2018-04-12T07:23:22.155Z,32.10
2018-04-12T07:24:22.086Z,35.40
2018-04-12T07:25:22.023Z,30.40
2018-04-12T07:26:21.962Z,30.10
2018-04-12T07:27:21.941Z,31.10
2018-04-12T07:28:21.845Z,32.10
2018-04-12T07:29:21.779Z,35.60
2018-04-12T07:30:21.711Z,30.60
2018-04-12T07:31:21.650Z,28.50
2018-04-12T07:32:21.591Z,28.60
2018-04-12T07:33:21.537Z,27.60
2018-04-12T07:34:21.478Z,28.80
2018-04-12T07:35:21.423Z,35.00
2018-04-12T07:36:21.347Z,31.00
2018-04-12T07:37:21.284Z,29.20
2018-04-12T07:38:21.220Z,25.30
2018-04-12T07:39:21.162Z,27.80
2018-04-12T07:40:21.097Z,28.30
2018-04-12T07:41:21.046Z,30.10
2018-04-12T07:42:20.972Z,26.90
2018-04-12T07:43:20.910Z,29.30
2018-04-12T07:44:20.852Z,26.60
2018-04-12T07:45:20.794Z,27.40
2018-04-12T07:46:20.735Z,28.10
2018-04-12T07:47:20.664Z,27.70
2018-04-12T07:48:20.611Z,28.30
2018-04-12T07:49:20.545Z,26.40
2018-04-12T07:50:20.499Z,29.20
2018-04-12T07:51:20.429Z,30.40
2018-04-12T07:52:20.361Z,23.40
2018-04-12T07:53:20.319Z,27.30
2018-04-12T07:54:20.248Z,27.40
2018-04-12T07:55:20.178Z,25.70
2018-04-12T07:56:20.121Z,28.20
2018-04-12T07:57:20.074Z,25.00
2018-04-12T07:58:20.004Z,26.60
2018-04-12T07:59:19.941Z,31.30
2018-04-12T08:00:19.880Z,26.30
2018-04-12T08:01:19.812Z,30.40
2018-04-12T08:02:19.766Z,26.20
2018-04-12T08:03:19.738Z,30.10
2018-04-12T08:04:19.634Z,26.10
2018-04-12T08:05:19.573Z,24.90
2018-04-12T08:06:19.528Z,26.50
2018-04-12T08:07:19.450Z,25.50
2018-04-12T08:08:19.392Z,25.30
2018-04-12T08:09:19.332Z,23.10
2018-04-12T08:10:19.271Z,23.80
2018-04-12T08:11:19.231Z,21.30
2018-04-12T08:12:19.155Z,25.40
2018-04-12T08:13:19.084Z,22.80
2018-04-12T08:14:19.031Z,26.00
2018-04-12T08:15:18.964Z,24.30
2018-04-12T08:16:18.964Z,26.20
2018-04-12T08:17:18.848Z,26.20
2018-04-12T08:18:18.791Z,27.20
2018-04-12T08:19:18.730Z,24.70
2018-04-12T08:20:18.686Z,26.60
2018-04-12T08:21:18.606Z,27.60
2018-04-12T08:22:18.556Z,29.90
2018-04-12T08:23:18.487Z,22.90
2018-04-12T08:24:18.426Z,27.70
2018-04-12T08:25:18.376Z,26.20
2018-04-12T08:26:18.323Z,26.50
2018-04-12T08:27:18.244Z,23.80
2018-04-12T08:28:18.189Z,22.40
2018-04-12T08:29:18.128Z,23.30
2018-04-12T08:30:18.073Z,24.70
2018-04-12T08:31:18.009Z,25.40
2018-04-12T08:32:17.944Z,22.90
2018-04-12T08:33:17.893Z,23.10
2018-04-12T08:34:17.847Z,22.80
2018-04-12T08:35:17.764Z,23.60
2018-04-12T08:36:17.713Z,22.20
2018-04-12T08:37:17.651Z,24.70
2018-04-12T08:38:17.584Z,28.90
2018-04-12T08:39:17.523Z,23.50
2018-04-12T08:40:17.472Z,29.80
2018-04-12T08:41:17.410Z,30.10
2018-04-12T08:42:17.348Z,22.00
2018-04-12T08:43:17.289Z,25.10
2018-04-12T08:44:17.227Z,26.30
2018-04-12T08:45:17.168Z,25.10
2018-04-12T08:46:17.106Z,23.70
2018-04-12T08:47:17.048Z,25.50
2018-04-12T08:48:16.990Z,24.60
2018-04-12T08:49:16.932Z,23.40
2018-04-12T08:50:16.878Z,21.10
2018-04-12T08:51:16.817Z,25.30
2018-04-12T08:52:16.748Z,24.20
2018-04-12T08:53:16.693Z,24.00
2018-04-12T08:54:16.639Z,20.00
2018-04-12T08:55:16.585Z,24.60
2018-04-12T08:56:16.521Z,19.30
2018-04-12T08:57:16.459Z,22.40
2018-04-12T08:58:16.390Z,24.30
2018-04-12T08:59:16.335Z,22.90
2018-04-12T09:00:16.285Z,24.00
2018-04-12T09:01:16.319Z,20.50
2018-04-12T09:02:16.222Z,23.30
2018-04-12T09:03:16.099Z,22.00
2018-04-12T09:04:16.056Z,20.10
2018-04-12T09:05:16.027Z,25.00
2018-04-12T09:06:15.926Z,23.10
2018-04-12T09:07:15.934Z,24.20
2018-04-12T09:08:15.810Z,25.20
2018-04-12T09:09:15.746Z,19.60
2018-04-12T09:10:15.686Z,21.40
2018-04-12T09:11:15.639Z,20.50
2018-04-12T09:12:15.636Z,19.70
2018-04-12T09:13:15.523Z,21.60
2018-04-12T09:14:15.456Z,21.30
2018-04-12T09:15:15.400Z,23.10
2018-04-12T09:16:15.349Z,20.00
2018-04-12T09:17:15.276Z,21.70
2018-04-12T09:18:15.289Z,24.70
2018-04-12T09:19:15.189Z,23.40
2018-04-12T09:20:15.116Z,21.40
2018-04-12T09:21:15.045Z,20.10
2018-04-12T09:22:15.044Z,19.20
2018-04-12T09:23:14.927Z,20.40
2018-04-12T09:24:14.886Z,21.50
2018-04-12T09:25:14.811Z,19.40
2018-04-12T09:26:14.751Z,20.70
2018-04-12T09:27:14.705Z,20.20
2018-04-12T09:28:14.635Z,19.90
2018-04-12T09:29:14.592Z,19.90
2018-04-12T09:30:14.518Z,18.00
2018-04-12T09:31:14.460Z,22.20
2018-04-12T09:32:14.404Z,16.90
2018-04-12T09:33:14.400Z,18.30
2018-04-12T09:34:14.285Z,23.10
2018-04-12T09:35:14.233Z,18.40
2018-04-12T09:36:14.173Z,19.40
2018-04-12T09:37:14.112Z,19.60
2018-04-12T09:38:14.055Z,20.10
2018-04-12T09:39:13.996Z,20.10
2018-04-12T09:40:13.938Z,20.40
2018-04-12T09:41:13.920Z,18.90
2018-04-12T09:42:13.882Z,19.60
2018-04-12T09:43:13.756Z,22.10
2018-04-12T09:44:13.712Z,21.20
2018-04-12T09:45:13.646Z,20.80
2018-04-12T09:46:13.611Z,18.10
2018-04-12T09:47:13.535Z,21.60
2018-04-12T09:48:13.469Z,18.80
2018-04-12T09:49:13.486Z,20.70
2018-04-12T09:50:13.356Z,18.40
2018-04-12T09:51:13.304Z,21.60
2018-04-12T09:52:13.238Z,21.20
2018-04-12T09:53:13.180Z,18.10
2018-04-12T09:54:13.133Z,17.50
2018-04-12T09:55:13.063Z,19.50
2018-04-12T09:56:13.008Z,18.60
2018-04-12T09:57:12.967Z,20.40
2018-04-12T09:58:12.901Z,17.80
2018-04-12T09:59:12.834Z,20.50
2018-04-12T10:00:12.781Z,19.50
2018-04-12T10:01:12.714Z,19.30
2018-04-12T10:02:12.665Z,19.00
2018-04-12T10:03:13.568Z,18.90
2018-04-12T10:04:12.557Z,17.40
2018-04-12T10:05:12.528Z,15.70
2018-04-12T10:06:14.419Z,16.60
2018-04-12T10:07:12.398Z,22.80
2018-04-12T10:08:12.339Z,17.10
2018-04-12T10:09:12.279Z,17.30
2018-04-12T10:10:12.207Z,19.60
2018-04-12T10:11:12.142Z,13.70
2018-04-12T10:12:12.079Z,17.60
2018-04-12T10:13:12.027Z,16.40
2018-04-12T10:14:11.969Z,14.80
2018-04-12T10:15:11.904Z,15.60
2018-04-12T10:16:11.853Z,15.50
2018-04-12T10:17:11.801Z,14.80
2018-04-12T10:18:11.770Z,17.10
2018-04-12T10:19:11.791Z,14.80
2018-04-12T10:20:11.621Z,15.20
2018-04-12T10:21:11.567Z,14.70
2018-04-12T10:22:11.508Z,23.50
2018-04-12T10:23:11.447Z,13.80
2018-04-12T10:24:11.412Z,17.40
2018-04-12T10:25:11.351Z,14.20
2018-04-12T10:26:11.281Z,15.50
2018-04-12T10:27:11.231Z,18.50
2018-04-12T10:28:11.170Z,13.90
2018-04-12T10:29:11.110Z,16.90
2018-04-12T10:30:11.057Z,18.60
2018-04-12T10:31:10.999Z,15.80
2018-04-12T10:32:10.953Z,11.80
2018-04-12T10:33:11.563Z,14.00
2018-04-12T10:34:10.825Z,15.70
2018-04-12T10:35:10.789Z,12.50
2018-04-12T10:36:11.353Z,19.70
2018-04-12T10:37:10.669Z,18.50
2018-04-12T10:38:10.636Z,17.30
2018-04-12T10:39:10.550Z,13.10
2018-04-12T10:40:10.494Z,18.00
2018-04-12T10:41:10.447Z,11.60
2018-04-12T10:42:10.386Z,16.20
2018-04-12T10:43:10.323Z,15.60
2018-04-12T10:44:10.271Z,14.90
2018-04-12T10:45:10.214Z,14.20
2018-04-12T10:46:10.164Z,13.40
2018-04-12T10:47:10.096Z,11.20
2018-04-12T10:48:10.059Z,18.30
2018-04-12T10:49:09.994Z,14.90
2018-04-12T10:50:09.931Z,12.30
2018-04-12T10:51:09.881Z,14.80
2018-04-12T10:52:09.821Z,12.80
2018-04-12T10:53:09.765Z,13.10
2018-04-12T10:54:09.726Z,25.80
2018-04-12T10:55:09.648Z,15.10
2018-04-12T10:56:09.603Z,17.60
2018-04-12T10:57:09.544Z,15.70
2018-04-12T10:58:09.488Z,11.70
2018-04-12T10:59:09.447Z,12.90
2018-04-12T11:00:09.369Z,16.70
2018-04-12T11:01:09.322Z,14.60
2018-04-12T11:02:09.292Z,15.70
2018-04-12T11:03:09.209Z,13.60
2018-04-12T11:04:09.183Z,10.60
2018-04-12T11:05:09.091Z,15.60
2018-04-12T11:06:09.044Z,15.60
2018-04-12T11:07:08.996Z,12.70
2018-04-12T11:08:08.933Z,11.90
2018-04-12T11:09:08.889Z,14.90
2018-04-12T11:10:08.817Z,11.90
2018-04-12T11:11:08.763Z,13.80
2018-04-12T11:12:08.714Z,11.50
2018-04-12T11:13:08.650Z,15.80
2018-04-12T11:14:08.597Z,13.40
2018-04-12T11:15:08.541Z,12.40
2018-04-12T11:16:08.491Z,11.20
2018-04-12T11:17:08.444Z,10.40
2018-04-12T11:18:08.380Z,12.80
2018-04-12T11:19:08.326Z,9.60
2018-04-12T11:20:09.031Z,10.70
2018-04-12T11:21:08.245Z,11.40
2018-04-12T11:22:08.174Z,10.90
2018-04-12T11:23:08.136Z,12.70
2018-04-12T11:24:08.062Z,13.10
2018-04-12T11:25:08.007Z,11.40
2018-04-12T11:26:07.957Z,12.70
2018-04-12T11:27:07.950Z,12.00
2018-04-12T11:28:07.849Z,8.70
2018-04-12T11:29:07.808Z,12.40
2018-04-12T11:30:07.743Z,8.60
2018-04-12T11:31:07.697Z,11.30
2018-04-12T11:32:07.642Z,15.60
2018-04-12T11:33:07.605Z,11.70
2018-04-12T11:34:08.559Z,10.10
2018-04-12T11:35:07.531Z,10.80
2018-04-12T11:36:07.437Z,12.90
2018-04-12T11:37:07.383Z,17.00
2018-04-12T11:38:07.342Z,13.20
2018-04-12T11:39:07.281Z,12.40
2018-04-12T11:40:07.237Z,10.80
2018-04-12T11:41:07.191Z,10.60
2018-04-12T11:42:07.145Z,9.70
2018-04-12T11:43:07.207Z,11.60
2018-04-12T11:44:07.038Z,10.00
2018-04-12T11:45:06.985Z,10.70
2018-04-12T11:46:06.931Z,10.30
2018-04-12T11:47:06.893Z,12.20
2018-04-12T11:48:06.839Z,10.70
2018-04-12T11:49:06.923Z,12.20
2018-04-12T11:50:06.806Z,10.50
2018-04-12T11:51:06.705Z,9.90
2018-04-12T11:52:06.670Z,12.60
2018-04-12T11:53:06.603Z,11.30
2018-04-12T11:54:06.559Z,8.00
2018-04-12T11:55:06.507Z,7.60
2018-04-12T11:56:06.470Z,9.10
2018-04-12T11:57:06.410Z,10.00
2018-04-12T11:58:06.364Z,11.40
2018-04-12T11:59:06.309Z,11.00
2018-04-12T12:00:06.277Z,13.60
2018-04-12T12:01:06.222Z,11.70
2018-04-12T12:02:06.181Z,8.30
2018-04-12T12:03:06.129Z,11.60
2018-04-12T12:04:06.084Z,9.60
2018-04-12T12:05:06.028Z,8.10
2018-04-12T12:06:05.995Z,6.10
2018-04-12T12:07:05.938Z,7.50
2018-04-12T12:08:05.909Z,8.50
2018-04-12T12:09:12.559Z,11.80
2018-04-12T12:10:05.805Z,8.20
2018-04-12T12:11:05.774Z,10.40
2018-04-12T12:12:05.712Z,10.80
2018-04-12T12:13:05.666Z,7.50
2018-04-12T12:14:05.835Z,9.20
2018-04-12T12:15:05.739Z,10.10
2018-04-12T12:16:05.534Z,7.60
2018-04-12T12:17:05.471Z,10.00
2018-04-12T12:18:05.421Z,7.30
2018-04-12T12:19:05.381Z,10.90
2018-04-12T12:20:05.332Z,8.30
2018-04-12T12:21:05.290Z,7.40
2018-04-12T12:22:05.260Z,9.10
2018-04-12T12:23:05.211Z,8.50
2018-04-12T12:24:05.159Z,8.30
2018-04-12T12:25:05.110Z,9.50
2018-04-12T12:26:05.086Z,11.20
2018-04-12T12:27:05.014Z,7.60
2018-04-12T12:28:04.967Z,6.30
2018-04-12T12:29:04.918Z,10.20
2018-04-12T12:30:04.873Z,7.90
2018-04-12T12:31:04.823Z,12.40
2018-04-12T12:32:04.781Z,13.30
2018-04-12T12:33:04.731Z,14.80
2018-04-12T12:34:04.691Z,12.60
2018-04-12T12:35:04.637Z,11.50
2018-04-12T12:36:04.590Z,8.90
2018-04-12T12:37:04.537Z,8.50
2018-04-12T12:38:04.496Z,13.20
2018-04-12T12:39:04.451Z,12.20
2018-04-12T12:40:04.402Z,10.30
2018-04-12T12:41:04.353Z,11.20
2018-04-12T12:42:04.310Z,10.50
2018-04-12T12:43:04.266Z,10.00
2018-04-12T12:44:04.239Z,12.00
2018-04-12T12:45:04.179Z,11.70
2018-04-12T12:46:04.145Z,10.30
2018-04-12T12:47:04.086Z,8.60
2018-04-12T12:48:04.054Z,10.40
2018-04-12T12:49:03.997Z,7.90
2018-04-12T12:50:04.035Z,8.80
2018-04-12T12:51:03.909Z,10.20
2018-04-12T12:52:03.870Z,8.40
2018-04-12T12:53:03.822Z,7.80
2018-04-12T12:54:03.778Z,10.50
2018-04-12T12:55:03.732Z,6.80
2018-04-12T12:56:03.710Z,10.80
2018-04-12T12:57:03.649Z,6.50
2018-04-12T12:58:03.603Z,9.90